Charles Town, WV (25414)

3:20 PM EDT on September 27, 2016 (GMT -0400)
Vinton Farm | | Change Station

Elev 522 ft 39.27 °N, 77.86 °W | Updated 15 seconds ago

Clear
Clear
77.5 °F
Feels Like 78 °F
N
1.8
Wind Variable Wind from NW
Gusts 2.5 mph

Today
High -- | Low -- °F
--% Chance of Precip.
Yesterday
High -- | Low -- °F
Precip. -- in
Pressure 29.88 in
Visibility 10.0 miles
Clouds Clear
Heat Index 78 °F
Dew Point 47 °F
Humidity 34%
Rainfall 0.13 in
Snow Depth Not available.
7:04 AM 6:59 PM
Waning Crescent, 10% visible
METAR KMRB 271853Z 00000KT 10SM CLR 24/03 A2989 RMK AO2 SLP118 T02440033
Pressure 29.88 in
Visibility 10.0 miles
Clouds Clear
Heat Index 78 °F
Dew Point 47 °F
Humidity 34%
Rainfall 0.13 in
Snow Depth Not available.
7:04 AM 6:59 PM
Waning Crescent, 10% visible
METAR KMRB 271853Z 00000KT 10SM CLR 24/03 A2989 RMK AO2 SLP118 T02440033

10-Day Weather Forecast

Almanac

Astronomy

Sep. 27, 2016 Rise Set
Actual Time
Civil Twilight
Nautical Twilight
Astronomical Twilight
Moon
Length of Visible Light
Length of Day
Tomorrow will be .
, % of the Moon is Illuminated

Today's Extremes

State Highs State Lows

Community

WunderPhotos

Upload Photos

1,942,162 photos uploaded!

WunderBlog® & News

Nearby

Air Quality

  Air Quality AQ Index Pollutant
Not available.

Snow Depth

Station Depth Elevation

Earthquake Activity

City Distance Mag. Time & Date
Minimum magnitude displayed is 2.5.

Coastal Water Temperatures

Place Temperature

Stations

Nearby Weather Stations

Station Location Temp. Windchill Dew Point Humidity Wind Precip. Elev Updated Type
                   

Watches & Warnings

There are currently no watches in effect.